x

St. Augustine, Fl (sauf1) Weather Station

1:00am - Fri 22nd Sep 2017 All times are EDT. -4 hours from GMT.

  • Wind
    13mph, 15mph gusts
  • Sea Temp 83°f
  • Air Temp 81°f
  • Sea Pressure 1015.4mb
  • St. Augustine, Fl
  • St. Augustine, Fl

More Historic Weather Station data

Upgrade to MSW Pro to gain access to the past 30 days of data for over 8000 Wavebouys and Weather Stations around the globe.

Join

Comparision Forecast

View Surf forecast
   
Fri 09/22 1:00am 13 15 mph 1015.4mb 83f 81f
12:00am 13 16 mph 1015.9mb 84f 81f
Thu 09/21 11:00pm 11 13 mph 1015.9mb 84f 81f
10:00pm 10 11 mph 1015.8mb 84f 81f
9:00pm 10 13 mph 1015.6mb 84f 81f
8:00pm 9 10 mph 1015.1mb 84f 81f
7:00pm 11 11 mph 1014.9mb 85f 81f
6:00pm 8 9 mph 1015.1mb 85f 81f
5:00pm 10 13 mph 1015.3mb 85f 81f
4:00pm 11 13 mph 1015.5mb 85f 81f
3:00pm 9 10 mph 1016.3mb 84f 81f
2:00pm 8 8 mph 1017mb 84f 81f
1:00pm 11 13 mph 1017.5mb 83f 80f
12:00pm 9 10 mph 1017.8mb 82f 80f
11:00am 9 9 mph 1017.9mb 82f 79f
10:00am 8 8 mph 1017.8mb 82f 79f
9:00am 3 3 mph 1017.3mb 82f 76f
8:00am 5 6 mph 1016.8mb 82f 75f
7:00am 3 5 mph 1016.5mb 82f 76f
6:00am 5 6 mph 1015.9mb 82f 76f
5:00am 5 6 mph 1015.5mb 83f 76f
4:00am 5 5 mph 1015.3mb 83f 76f
3:00am 6 6 mph 1015.5mb 83f 77f
2:00am 6 8 mph 1016mb 84f 81f
1:00am 8 9 mph 1016.2mb 84f 81f
12:00am 11 13 mph 1016.6mb 84f 82f
Wed 09/20 11:00pm 11 13 mph 1016.9mb 84f 81f
10:00pm 11 13 mph 1016.8mb 84f 81f
9:00pm 11 13 mph 1016.2mb 84f 81f
8:00pm 14 15 mph 1015.7mb 84f 81f
7:00pm 11 13 mph 1015.8mb 85f 82f
6:00pm 13 13 mph 1015.5mb 85f 82f
5:00pm 11 13 mph 1015.7mb 85f 82f
4:00pm 9 10 mph 1016.2mb 84f 82f
3:00pm 8 9 mph 1016.6mb 84f 82f
2:00pm 8 9 mph 1017.1mb 83f 82f
1:00pm 8 9 mph 1017.9mb 83f 81f
12:00pm 6 7 mph 1018.2mb 83f 81f
11:00am 6 7 mph 1018.3mb 82f 81f
10:00am 3 5 mph 1018.2mb 82f 83f
9:00am 6 6 mph 1017.8mb 82f 77f
8:00am 5 6 mph 1017.3mb 82f 74f
7:00am 6 7 mph 1016.5mb 82f 74f
6:00am 5 6 mph 1015.8mb 82f 74f
5:00am 6 7 mph 1015.1mb 82f 74f
4:00am 7 7 mph 1015.3mb 82f 75f
3:00am 3 5 mph 1015.3mb 82f 76f
2:00am 10 11 mph 1015.7mb 82f 81f
1:00am 9 9 mph 1016mb 82f 81f
12:00am 11 11 mph 1016.2mb 82f 81f
Tue 09/19 11:00pm 13 13 mph 1016mb 83f 81f
10:00pm 10 13 mph 1015.9mb 83f 81f
9:00pm 10 11 mph 1015.4mb 83f 81f
8:00pm 11 13 mph 1015.1mb 83f 81f
7:00pm 10 10 mph 1014.7mb 83f 81f
6:00pm 9 10 mph 1014.7mb 83f 81f
5:00pm 9 10 mph 1014.6mb 83f 81f
4:00pm 10 11 mph 1014.9mb 83f 81f
3:00pm 9 10 mph 1015.4mb 83f 80f
2:00pm 9 10 mph 1015.9mb 83f 80f
1:00pm 7 8 mph 1016.7mb 82f 80f
12:00pm 8 9 mph 1017mb 82f 80f
11:00am 8 8 mph 1017.1mb 82f 79f
10:00am 3 5 mph 1016.9mb 81f 81f
9:00am 6 7 mph 1016.1mb 81f 81f
8:00am 7 8 mph 1015.5mb 81f 80f
7:00am 6 7 mph 1015.1mb 81f 80f
6:00am 7 8 mph 1014.7mb 81f 80f
5:00am 6 7 mph 1014mb 81f 80f
4:00am 5 5 mph 1014mb 81f 80f
3:00am 6 6 mph 1014.2mb 81f 80f
2:00am 7 8 mph 1014.6mb 81f 80f
1:00am 11 11 mph 1015mb 81f 80f
12:00am 10 11 mph 1015.3mb 82f 80f
Mon 09/18 11:00pm 14 15 mph 1015.5mb 82f 79f
10:00pm 14 15 mph 1015.4mb 82f 79f
9:00pm 14 15 mph 1015.1mb 82f 79f
8:00pm 15 16 mph 1014.8mb 83f 79f
7:00pm 15 16 mph 1014.6mb 83f 79f
6:00pm 17 18 mph 1014.5mb 83f 80f
5:00pm 17 18 mph 1014.6mb 83f 80f
4:00pm 17 18 mph 1014.7mb 83f 80f
3:00pm 17 20 mph 1015.1mb 82f 80f
2:00pm 17 20 mph 1015.4mb 82f 80f
1:00pm 18 21 mph 1016mb 82f 80f
12:00pm 18 22 mph 1016.4mb 82f 80f
11:00am 17 20 mph 1016.5mb 82f 80f
10:00am 16 17 mph 1015.9mb 81f 79f
9:00am 17 18 mph 1015.3mb 81f 80f
8:00am 8 10 mph 1015mb 81f 77f
7:00am 7 8 mph 1014.4mb 81f 76f